sensor_id;sensor_type;location;lat;lon;timestamp;temperature;humidity
79010;DHT22;73031;44.726;37.760;2023-10-13T00:00:59;10.42;73.59
79010;DHT22;73031;44.726;37.760;2023-10-13T00:02:04;10.42;73.82
79010;DHT22;73031;44.726;37.760;2023-10-13T00:03:06;10.42;73.95
79010;DHT22;73031;44.726;37.760;2023-10-13T00:04:15;10.36;73.89
79010;DHT22;73031;44.726;37.760;2023-10-13T00:05:16;10.37;73.81
79010;DHT22;73031;44.726;37.760;2023-10-13T00:06:18;10.40;73.89
79010;DHT22;73031;44.726;37.760;2023-10-13T00:07:19;10.40;73.66
79010;DHT22;73031;44.726;37.760;2023-10-13T00:08:20;10.41;73.78
79010;DHT22;73031;44.726;37.760;2023-10-13T00:09:25;10.38;73.88
79010;DHT22;73031;44.726;37.760;2023-10-13T00:10:33;10.36;73.84
79010;DHT22;73031;44.726;37.760;2023-10-13T00:11:41;10.38;73.80
79010;DHT22;73031;44.726;37.760;2023-10-13T00:12:45;10.40;73.64
79010;DHT22;73031;44.726;37.760;2023-10-13T00:13:50;10.36;73.64
79010;DHT22;73031;44.726;37.760;2023-10-13T00:14:51;10.33;73.88
79010;DHT22;73031;44.726;37.760;2023-10-13T00:15:55;10.29;73.85
79010;DHT22;73031;44.726;37.760;2023-10-13T00:17:06;10.36;73.74
79010;DHT22;73031;44.726;37.760;2023-10-13T00:18:16;10.37;73.65
79010;DHT22;73031;44.726;37.760;2023-10-13T00:19:20;10.40;73.56
79010;DHT22;73031;44.726;37.760;2023-10-13T00:20:24;10.41;73.66
79010;DHT22;73031;44.726;37.760;2023-10-13T00:21:39;10.37;73.55
79010;DHT22;73031;44.726;37.760;2023-10-13T00:22:40;10.41;73.46
79010;DHT22;73031;44.726;37.760;2023-10-13T00:23:43;10.38;73.51
79010;DHT22;73031;44.726;37.760;2023-10-13T00:24:57;10.36;73.62
79010;DHT22;73031;44.726;37.760;2023-10-13T00:26:04;10.30;73.94
79010;DHT22;73031;44.726;37.760;2023-10-13T00:27:14;10.27;73.93
79010;DHT22;73031;44.726;37.760;2023-10-13T00:28:31;10.27;74.00
79010;DHT22;73031;44.726;37.760;2023-10-13T00:29:46;10.30;73.88
79010;DHT22;73031;44.726;37.760;2023-10-13T00:30:48;10.29;73.85
79010;DHT22;73031;44.726;37.760;2023-10-13T00:31:51;10.31;73.84
79010;DHT22;73031;44.726;37.760;2023-10-13T00:32:53;10.31;73.92
79010;DHT22;73031;44.726;37.760;2023-10-13T00:33:56;10.25;73.91
79010;DHT22;73031;44.726;37.760;2023-10-13T00:35:02;10.23;73.90
79010;DHT22;73031;44.726;37.760;2023-10-13T00:36:06;10.23;74.23
79010;DHT22;73031;44.726;37.760;2023-10-13T00:37:08;10.20;74.20
79010;DHT22;73031;44.726;37.760;2023-10-13T00:38:32;10.20;74.03
79010;DHT22;73031;44.726;37.760;2023-10-13T00:39:34;10.18;74.22
79010;DHT22;73031;44.726;37.760;2023-10-13T00:40:37;10.14;74.32
79010;DHT22;73031;44.726;37.760;2023-10-13T00:41:38;10.13;74.20
79010;DHT22;73031;44.726;37.760;2023-10-13T00:42:52;10.17;74.05
79010;DHT22;73031;44.726;37.760;2023-10-13T00:43:54;10.14;74.03
79010;DHT22;73031;44.726;37.760;2023-10-13T00:45:05;10.12;73.80
79010;DHT22;73031;44.726;37.760;2023-10-13T00:46:07;10.12;73.54
79010;DHT22;73031;44.726;37.760;2023-10-13T00:47:09;10.10;73.46
79010;DHT22;73031;44.726;37.760;2023-10-13T00:48:19;10.04;73.48
79010;DHT22;73031;44.726;37.760;2023-10-13T00:49:21;10.00;73.63
79010;DHT22;73031;44.726;37.760;2023-10-13T00:50:23;9.99;73.61
79010;DHT22;73031;44.726;37.760;2023-10-13T00:51:25;9.97;73.54
79010;DHT22;73031;44.726;37.760;2023-10-13T00:52:43;9.95;73.44
79010;DHT22;73031;44.726;37.760;2023-10-13T00:53:48;9.96;73.39
79010;DHT22;73031;44.726;37.760;2023-10-13T00:54:50;9.92;73.42
79010;DHT22;73031;44.726;37.760;2023-10-13T00:55:51;9.93;73.44
79010;DHT22;73031;44.726;37.760;2023-10-13T00:56:57;9.96;73.42
79010;DHT22;73031;44.726;37.760;2023-10-13T00:58:05;9.96;73.23
79010;DHT22;73031;44.726;37.760;2023-10-13T00:59:09;9.93;73.19
79010;DHT22;73031;44.726;37.760;2023-10-13T01:00:11;9.90;73.42
79010;DHT22;73031;44.726;37.760;2023-10-13T01:01:25;9.97;73.32
79010;DHT22;73031;44.726;37.760;2023-10-13T01:02:31;9.93;73.27
79010;DHT22;73031;44.726;37.760;2023-10-13T01:03:42;9.89;73.53
79010;DHT22;73031;44.726;37.760;2023-10-13T01:04:44;9.89;73.52
79010;DHT22;73031;44.726;37.760;2023-10-13T01:05:47;9.89;73.71
79010;DHT22;73031;44.726;37.760;2023-10-13T01:06:54;9.85;73.85
79010;DHT22;73031;44.726;37.760;2023-10-13T01:07:56;9.83;73.81
79010;DHT22;73031;44.726;37.760;2023-10-13T01:09:04;9.82;73.93
79010;DHT22;73031;44.726;37.760;2023-10-13T01:10:19;9.83;73.74
79010;DHT22;73031;44.726;37.760;2023-10-13T01:11:21;9.87;73.68
79010;DHT22;73031;44.726;37.760;2023-10-13T01:12:25;9.90;73.88
79010;DHT22;73031;44.726;37.760;2023-10-13T01:13:26;9.89;74.01
79010;DHT22;73031;44.726;37.760;2023-10-13T01:14:27;9.87;73.98
79010;DHT22;73031;44.726;37.760;2023-10-13T01:15:29;9.92;74.11
79010;DHT22;73031;44.726;37.760;2023-10-13T01:16:33;9.89;74.03
79010;DHT22;73031;44.726;37.760;2023-10-13T01:17:36;9.89;74.12
79010;DHT22;73031;44.726;37.760;2023-10-13T01:18:37;9.86;74.36
79010;DHT22;73031;44.726;37.760;2023-10-13T01:19:48;9.83;74.51
79010;DHT22;73031;44.726;37.760;2023-10-13T01:20:49;9.82;74.57
79010;DHT22;73031;44.726;37.760;2023-10-13T01:21:53;9.81;74.51
79010;DHT22;73031;44.726;37.760;2023-10-13T01:23:07;9.78;74.59
79010;DHT22;73031;44.726;37.760;2023-10-13T01:24:11;9.79;74.34
79010;DHT22;73031;44.726;37.760;2023-10-13T01:25:16;9.83;74.49
79010;DHT22;73031;44.726;37.760;2023-10-13T01:26:20;9.86;74.47
79010;DHT22;73031;44.726;37.760;2023-10-13T01:27:27;9.87;74.29
79010;DHT22;73031;44.726;37.760;2023-10-13T01:28:28;9.87;74.42
79010;DHT22;73031;44.726;37.760;2023-10-13T01:29:29;9.90;74.28
79010;DHT22;73031;44.726;37.760;2023-10-13T01:30:30;9.92;74.37
79010;DHT22;73031;44.726;37.760;2023-10-13T01:31:32;9.89;74.50
79010;DHT22;73031;44.726;37.760;2023-10-13T01:32:37;9.86;74.64
79010;DHT22;73031;44.726;37.760;2023-10-13T01:33:41;9.81;74.79
79010;DHT22;73031;44.726;37.760;2023-10-13T01:34:42;9.81;74.93
79010;DHT22;73031;44.726;37.760;2023-10-13T01:35:46;9.79;74.80
79010;DHT22;73031;44.726;37.760;2023-10-13T01:36:52;9.79;74.76
79010;DHT22;73031;44.726;37.760;2023-10-13T01:37:54;9.82;74.65
79010;DHT22;73031;44.726;37.760;2023-10-13T01:38:55;9.81;74.66
79010;DHT22;73031;44.726;37.760;2023-10-13T01:39:56;9.78;74.69
79010;DHT22;73031;44.726;37.760;2023-10-13T01:40:57;9.76;74.80
79010;DHT22;73031;44.726;37.760;2023-10-13T01:41:59;9.79;74.86
79010;DHT22;73031;44.726;37.760;2023-10-13T01:43:01;9.83;74.79
79010;DHT22;73031;44.726;37.760;2023-10-13T01:44:05;9.81;74.71
79010;DHT22;73031;44.726;37.760;2023-10-13T01:45:06;9.82;74.63
79010;DHT22;73031;44.726;37.760;2023-10-13T01:46:09;9.86;74.40
79010;DHT22;73031;44.726;37.760;2023-10-13T01:47:10;9.89;74.27
79010;DHT22;73031;44.726;37.760;2023-10-13T01:48:13;9.87;73.96
79010;DHT22;73031;44.726;37.760;2023-10-13T01:49:17;9.85;73.84
79010;DHT22;73031;44.726;37.760;2023-10-13T01:50:22;9.81;74.18
79010;DHT22;73031;44.726;37.760;2023-10-13T01:51:30;9.82;74.22
79010;DHT22;73031;44.726;37.760;2023-10-13T01:52:31;9.85;74.20
79010;DHT22;73031;44.726;37.760;2023-10-13T01:53:32;9.82;74.12
79010;DHT22;73031;44.726;37.760;2023-10-13T01:54:33;9.78;74.37
79010;DHT22;73031;44.726;37.760;2023-10-13T01:55:34;9.81;74.22
79010;DHT22;73031;44.726;37.760;2023-10-13T01:56:43;9.81;74.17
79010;DHT22;73031;44.726;37.760;2023-10-13T01:57:44;9.78;74.15
79010;DHT22;73031;44.726;37.760;2023-10-13T01:58:48;9.78;74.24
79010;DHT22;73031;44.726;37.760;2023-10-13T01:59:50;9.76;74.33
79010;DHT22;73031;44.726;37.760;2023-10-13T02:00:51;9.72;74.53
79010;DHT22;73031;44.726;37.760;2023-10-13T02:01:52;9.71;74.78
79010;DHT22;73031;44.726;37.760;2023-10-13T02:02:58;9.65;74.86
79010;DHT22;73031;44.726;37.760;2023-10-13T02:04:02;9.67;74.88
79010;DHT22;73031;44.726;37.760;2023-10-13T02:05:07;9.69;74.80
79010;DHT22;73031;44.726;37.760;2023-10-13T02:06:08;9.72;74.70
79010;DHT22;73031;44.726;37.760;2023-10-13T02:07:11;9.71;74.59
79010;DHT22;73031;44.726;37.760;2023-10-13T02:08:17;9.68;74.86
79010;DHT22;73031;44.726;37.760;2023-10-13T02:09:23;9.63;75.10
79010;DHT22;73031;44.726;37.760;2023-10-13T02:10:27;9.67;74.94
79010;DHT22;73031;44.726;37.760;2023-10-13T02:11:31;9.67;74.92
79010;DHT22;73031;44.726;37.760;2023-10-13T02:12:33;9.65;75.02
79010;DHT22;73031;44.726;37.760;2023-10-13T02:13:43;9.67;74.96
79010;DHT22;73031;44.726;37.760;2023-10-13T02:14:50;9.62;75.14
79010;DHT22;73031;44.726;37.760;2023-10-13T02:15:56;9.59;75.19
79010;DHT22;73031;44.726;37.760;2023-10-13T02:16:57;9.61;75.33
79010;DHT22;73031;44.726;37.760;2023-10-13T02:18:28;9.57;75.30
79010;DHT22;73031;44.726;37.760;2023-10-13T02:19:34;9.57;75.21
79010;DHT22;73031;44.726;37.760;2023-10-13T02:20:35;9.57;75.27
79010;DHT22;73031;44.726;37.760;2023-10-13T02:21:43;9.57;75.31
79010;DHT22;73031;44.726;37.760;2023-10-13T02:22:45;9.62;75.29
79010;DHT22;73031;44.726;37.760;2023-10-13T02:23:52;9.63;74.77
79010;DHT22;73031;44.726;37.760;2023-10-13T02:25:05;9.67;74.89
79010;DHT22;73031;44.726;37.760;2023-10-13T02:26:06;9.68;74.63
79010;DHT22;73031;44.726;37.760;2023-10-13T02:27:16;9.69;74.55
79010;DHT22;73031;44.726;37.760;2023-10-13T02:28:18;9.71;74.30
79010;DHT22;73031;44.726;37.760;2023-10-13T02:29:22;9.75;74.49
79010;DHT22;73031;44.726;37.760;2023-10-13T02:30:23;9.72;74.36
79010;DHT22;73031;44.726;37.760;2023-10-13T02:31:27;9.69;74.38
79010;DHT22;73031;44.726;37.760;2023-10-13T02:32:28;9.63;74.65
79010;DHT22;73031;44.726;37.760;2023-10-13T02:33:31;9.65;74.68
79010;DHT22;73031;44.726;37.760;2023-10-13T02:34:32;9.63;74.65
79010;DHT22;73031;44.726;37.760;2023-10-13T02:35:34;9.62;74.60
79010;DHT22;73031;44.726;37.760;2023-10-13T02:36:41;9.65;74.65
79010;DHT22;73031;44.726;37.760;2023-10-13T02:37:55;9.57;74.92
79010;DHT22;73031;44.726;37.760;2023-10-13T02:38:56;9.54;75.04
79010;DHT22;73031;44.726;37.760;2023-10-13T02:39:58;9.51;75.18
79010;DHT22;73031;44.726;37.760;2023-10-13T02:41:01;9.54;75.13
79010;DHT22;73031;44.726;37.760;2023-10-13T02:42:11;9.55;74.94
79010;DHT22;73031;44.726;37.760;2023-10-13T02:43:36;9.57;74.87
79010;DHT22;73031;44.726;37.760;2023-10-13T02:44:37;9.52;74.87
79010;DHT22;73031;44.726;37.760;2023-10-13T02:45:41;9.55;74.92
79010;DHT22;73031;44.726;37.760;2023-10-13T02:46:44;9.57;74.87
79010;DHT22;73031;44.726;37.760;2023-10-13T02:47:50;9.54;74.85
79010;DHT22;73031;44.726;37.760;2023-10-13T02:49:10;9.50;74.81
79010;DHT22;73031;44.726;37.760;2023-10-13T02:50:11;9.47;74.95
79010;DHT22;73031;44.726;37.760;2023-10-13T02:51:13;9.51;74.77
79010;DHT22;73031;44.726;37.760;2023-10-13T02:52:17;9.57;74.87
79010;DHT22;73031;44.726;37.760;2023-10-13T02:53:18;9.58;74.85
79010;DHT22;73031;44.726;37.760;2023-10-13T02:54:19;9.59;74.74
79010;DHT22;73031;44.726;37.760;2023-10-13T02:55:20;9.54;74.78
79010;DHT22;73031;44.726;37.760;2023-10-13T02:56:26;9.52;75.00
79010;DHT22;73031;44.726;37.760;2023-10-13T02:57:27;9.50;75.44
79010;DHT22;73031;44.726;37.760;2023-10-13T02:58:28;9.54;75.44
79010;DHT22;73031;44.726;37.760;2023-10-13T02:59:38;9.57;74.99
79010;DHT22;73031;44.726;37.760;2023-10-13T03:00:47;9.48;75.24
79010;DHT22;73031;44.726;37.760;2023-10-13T03:01:48;9.54;75.28
79010;DHT22;73031;44.726;37.760;2023-10-13T03:02:53;9.52;74.90
79010;DHT22;73031;44.726;37.760;2023-10-13T03:03:59;9.54;75.36
79010;DHT22;73031;44.726;37.760;2023-10-13T03:05:00;9.54;75.16
79010;DHT22;73031;44.726;37.760;2023-10-13T03:06:09;9.54;75.04
79010;DHT22;73031;44.726;37.760;2023-10-13T03:07:12;9.51;74.99
79010;DHT22;73031;44.726;37.760;2023-10-13T03:08:16;9.48;75.15
79010;DHT22;73031;44.726;37.760;2023-10-13T03:09:28;9.45;74.95
79010;DHT22;73031;44.726;37.760;2023-10-13T03:10:29;9.48;75.08
79010;DHT22;73031;44.726;37.760;2023-10-13T03:11:30;9.48;74.85
79010;DHT22;73031;44.726;37.760;2023-10-13T03:12:34;9.54;74.97
79010;DHT22;73031;44.726;37.760;2023-10-13T03:13:36;9.52;74.86
79010;DHT22;73031;44.726;37.760;2023-10-13T03:14:38;9.52;74.66
79010;DHT22;73031;44.726;37.760;2023-10-13T03:15:40;9.51;74.61
79010;DHT22;73031;44.726;37.760;2023-10-13T03:16:41;9.57;74.56
79010;DHT22;73031;44.726;37.760;2023-10-13T03:17:43;9.55;74.96
79010;DHT22;73031;44.726;37.760;2023-10-13T03:18:47;9.58;74.85
79010;DHT22;73031;44.726;37.760;2023-10-13T03:19:57;9.59;74.77
79010;DHT22;73031;44.726;37.760;2023-10-13T03:20:59;9.57;74.73
79010;DHT22;73031;44.726;37.760;2023-10-13T03:22:04;9.54;74.76
79010;DHT22;73031;44.726;37.760;2023-10-13T03:23:17;9.55;74.81
79010;DHT22;73031;44.726;37.760;2023-10-13T03:24:18;9.59;74.50
79010;DHT22;73031;44.726;37.760;2023-10-13T03:25:23;9.58;74.58
79010;DHT22;73031;44.726;37.760;2023-10-13T03:26:30;9.62;74.63
79010;DHT22;73031;44.726;37.760;2023-10-13T03:27:36;9.63;74.52
79010;DHT22;73031;44.726;37.760;2023-10-13T03:29:01;9.59;74.63
79010;DHT22;73031;44.726;37.760;2023-10-13T03:30:05;9.65;74.87
79010;DHT22;73031;44.726;37.760;2023-10-13T03:31:11;9.68;74.65
79010;DHT22;73031;44.726;37.760;2023-10-13T03:32:18;9.69;74.62
79010;DHT22;73031;44.726;37.760;2023-10-13T03:33:21;9.74;74.30
79010;DHT22;73031;44.726;37.760;2023-10-13T03:34:28;9.71;74.06
79010;DHT22;73031;44.726;37.760;2023-10-13T03:35:30;9.71;74.21
79010;DHT22;73031;44.726;37.760;2023-10-13T03:36:42;9.67;74.41
79010;DHT22;73031;44.726;37.760;2023-10-13T03:37:59;9.68;74.79
79010;DHT22;73031;44.726;37.760;2023-10-13T03:39:00;9.68;74.41
79010;DHT22;73031;44.726;37.760;2023-10-13T03:40:12;9.65;74.67
79010;DHT22;73031;44.726;37.760;2023-10-13T03:41:23;9.62;74.71
79010;DHT22;73031;44.726;37.760;2023-10-13T03:42:31;9.61;74.78
79010;DHT22;73031;44.726;37.760;2023-10-13T03:43:33;9.57;75.21
79010;DHT22;73031;44.726;37.760;2023-10-13T03:44:45;9.58;75.79
79010;DHT22;73031;44.726;37.760;2023-10-13T03:45:48;9.63;75.22
79010;DHT22;73031;44.726;37.760;2023-10-13T03:46:53;9.55;75.29
79010;DHT22;73031;44.726;37.760;2023-10-13T03:47:55;9.51;75.24
79010;DHT22;73031;44.726;37.760;2023-10-13T03:48:56;9.48;75.18
79010;DHT22;73031;44.726;37.760;2023-10-13T03:50:02;9.48;75.43
79010;DHT22;73031;44.726;37.760;2023-10-13T03:51:16;9.45;75.47
79010;DHT22;73031;44.726;37.760;2023-10-13T03:52:17;9.44;75.54
79010;DHT22;73031;44.726;37.760;2023-10-13T03:53:23;9.45;75.49
79010;DHT22;73031;44.726;37.760;2023-10-13T03:54:26;9.48;75.01
79010;DHT22;73031;44.726;37.760;2023-10-13T03:55:31;9.50;75.08
79010;DHT22;73031;44.726;37.760;2023-10-13T03:56:36;9.50;75.16
79010;DHT22;73031;44.726;37.760;2023-10-13T03:57:40;9.50;75.10
79010;DHT22;73031;44.726;37.760;2023-10-13T03:58:43;9.48;75.18
79010;DHT22;73031;44.726;37.760;2023-10-13T03:59:46;9.52;75.68
79010;DHT22;73031;44.726;37.760;2023-10-13T04:00:49;9.58;75.61
79010;DHT22;73031;44.726;37.760;2023-10-13T04:01:50;9.58;75.38
79010;DHT22;73031;44.726;37.760;2023-10-13T04:03:14;9.58;75.84
79010;DHT22;73031;44.726;37.760;2023-10-13T04:04:19;9.58;75.43
79010;DHT22;73031;44.726;37.760;2023-10-13T04:05:43;9.58;75.38
79010;DHT22;73031;44.726;37.760;2023-10-13T04:07:03;9.54;75.45
79010;DHT22;73031;44.726;37.760;2023-10-13T04:08:10;9.55;75.73
79010;DHT22;73031;44.726;37.760;2023-10-13T04:09:22;9.55;75.79
79010;DHT22;73031;44.726;37.760;2023-10-13T04:10:32;9.55;76.00
79010;DHT22;73031;44.726;37.760;2023-10-13T04:11:45;9.55;75.91
79010;DHT22;73031;44.726;37.760;2023-10-13T04:13:05;9.61;75.72
79010;DHT22;73031;44.726;37.760;2023-10-13T04:14:24;9.61;75.44
79010;DHT22;73031;44.726;37.760;2023-10-13T04:15:46;9.59;75.33
79010;DHT22;73031;44.726;37.760;2023-10-13T04:17:05;9.68;75.19
79010;DHT22;73031;44.726;37.760;2023-10-13T04:18:14;9.69;75.31
79010;DHT22;73031;44.726;37.760;2023-10-13T04:19:37;9.76;75.31
79010;DHT22;73031;44.726;37.760;2023-10-13T04:20:58;9.87;75.27
79010;DHT22;73031;44.726;37.760;2023-10-13T04:22:10;9.95;75.20
79010;DHT22;73031;44.726;37.760;2023-10-13T04:23:21;10.02;74.81
79010;DHT22;73031;44.726;37.760;2023-10-13T04:24:28;10.09;74.93
79010;DHT22;73031;44.726;37.760;2023-10-13T04:25:39;10.14;77.55
79010;DHT22;73031;44.726;37.760;2023-10-13T04:26:40;10.20;76.89
79010;DHT22;73031;44.726;37.760;2023-10-13T04:28:02;10.30;76.77
79010;DHT22;73031;44.726;37.760;2023-10-13T04:29:18;10.44;80.17
79010;DHT22;73031;44.726;37.760;2023-10-13T04:30:47;10.57;76.22
79010;DHT22;73031;44.726;37.760;2023-10-13T04:31:57;10.64;75.32
79010;DHT22;73031;44.726;37.760;2023-10-13T04:33:01;10.75;76.20
79010;DHT22;73031;44.726;37.760;2023-10-13T04:34:29;10.89;74.65
79010;DHT22;73031;44.726;37.760;2023-10-13T04:35:39;11.03;73.75
79010;DHT22;73031;44.726;37.760;2023-10-13T04:36:48;11.16;73.09
79010;DHT22;73031;44.726;37.760;2023-10-13T04:37:56;11.31;72.68
79010;DHT22;73031;44.726;37.760;2023-10-13T04:39:19;11.40;72.18
79010;DHT22;73031;44.726;37.760;2023-10-13T04:40:30;11.52;71.47
79010;DHT22;73031;44.726;37.760;2023-10-13T04:43:04;11.83;70.64
79010;DHT22;73031;44.726;37.760;2023-10-13T04:44:26;11.95;71.55
79010;DHT22;73031;44.726;37.760;2023-10-13T04:46:00;12.13;70.84
79010;DHT22;73031;44.726;37.760;2023-10-13T04:47:15;12.21;69.78
79010;DHT22;73031;44.726;37.760;2023-10-13T04:48:22;12.30;69.69
79010;DHT22;73031;44.726;37.760;2023-10-13T04:49:23;12.41;69.07
79010;DHT22;73031;44.726;37.760;2023-10-13T04:50:36;12.65;68.53
79010;DHT22;73031;44.726;37.760;2023-10-13T04:51:45;12.83;68.62
79010;DHT22;73031;44.726;37.760;2023-10-13T04:53:14;13.06;68.78
79010;DHT22;73031;44.726;37.760;2023-10-13T04:54:30;13.28;67.17
79010;DHT22;73031;44.726;37.760;2023-10-13T04:55:35;13.36;66.96
79010;DHT22;73031;44.726;37.760;2023-10-13T04:56:36;13.43;67.31
79010;DHT22;73031;44.726;37.760;2023-10-13T04:57:56;13.53;67.73
79010;DHT22;73031;44.726;37.760;2023-10-13T04:59:17;13.69;67.17
79010;DHT22;73031;44.726;37.760;2023-10-13T05:00:36;13.92;66.31
79010;DHT22;73031;44.726;37.760;2023-10-13T05:01:57;14.10;65.32
79010;DHT22;73031;44.726;37.760;2023-10-13T05:02:58;14.24;65.09
79010;DHT22;73031;44.726;37.760;2023-10-13T05:04:02;14.33;64.88
79010;DHT22;73031;44.726;37.760;2023-10-13T05:05:14;14.49;65.23
79010;DHT22;73031;44.726;37.760;2023-10-13T05:06:15;14.61;64.30
79010;DHT22;73031;44.726;37.760;2023-10-13T05:07:46;14.82;63.01
79010;DHT22;73031;44.726;37.760;2023-10-13T05:09:06;14.98;62.18
79010;DHT22;73031;44.726;37.760;2023-10-13T05:10:25;15.22;61.46
79010;DHT22;73031;44.726;37.760;2023-10-13T05:12:05;15.24;62.00
79010;DHT22;73031;44.726;37.760;2023-10-13T05:13:25;15.28;60.92
79010;DHT22;73031;44.726;37.760;2023-10-13T05:14:45;15.36;60.31
79010;DHT22;73031;44.726;37.760;2023-10-13T05:16:05;15.54;60.52
79010;DHT22;73031;44.726;37.760;2023-10-13T05:17:25;15.73;60.37
79010;DHT22;73031;44.726;37.760;2023-10-13T05:18:44;16.03;59.13
79010;DHT22;73031;44.726;37.760;2023-10-13T05:20:04;16.23;59.80
79010;DHT22;73031;44.726;37.760;2023-10-13T05:21:24;16.50;59.47
79010;DHT22;73031;44.726;37.760;2023-10-13T05:22:43;16.65;59.15
79010;DHT22;73031;44.726;37.760;2023-10-13T05:24:04;16.78;57.76
79010;DHT22;73031;44.726;37.760;2023-10-13T05:25:24;16.89;56.13
79010;DHT22;73031;44.726;37.760;2023-10-13T05:26:43;16.92;56.67
79010;DHT22;73031;44.726;37.760;2023-10-13T05:28:03;17.05;55.52
79010;DHT22;73031;44.726;37.760;2023-10-13T05:29:22;17.17;55.31
79010;DHT22;73031;44.726;37.760;2023-10-13T05:30:49;17.54;54.97
79010;DHT22;73031;44.726;37.760;2023-10-13T05:32:09;17.82;55.68
79010;DHT22;73031;44.726;37.760;2023-10-13T05:33:28;18.12;55.54
79010;DHT22;73031;44.726;37.760;2023-10-13T05:34:48;18.45;55.17
79010;DHT22;73031;44.726;37.760;2023-10-13T05:36:11;18.79;54.01
79010;DHT22;73031;44.726;37.760;2023-10-13T05:37:30;19.16;54.29
79010;DHT22;73031;44.726;37.760;2023-10-13T05:38:50;19.44;51.88
79010;DHT22;73031;44.726;37.760;2023-10-13T05:40:09;19.68;52.32
79010;DHT22;73031;44.726;37.760;2023-10-13T05:41:29;19.90;50.03
79010;DHT22;73031;44.726;37.760;2023-10-13T05:42:48;20.06;50.84
79010;DHT22;73031;44.726;37.760;2023-10-13T05:44:08;20.43;50.39
79010;DHT22;73031;44.726;37.760;2023-10-13T05:45:27;20.78;50.05
79010;DHT22;73031;44.726;37.760;2023-10-13T05:46:57;21.06;47.83
79010;DHT22;73031;44.726;37.760;2023-10-13T05:48:33;21.37;47.30
79010;DHT22;73031;44.726;37.760;2023-10-13T05:49:53;21.67;46.92
79010;DHT22;73031;44.726;37.760;2023-10-13T05:51:05;21.86;45.19
79010;DHT22;73031;44.726;37.760;2023-10-13T05:52:25;22.02;46.19
79010;DHT22;73031;44.726;37.760;2023-10-13T05:53:45;22.23;45.56
79010;DHT22;73031;44.726;37.760;2023-10-13T05:55:05;22.41;44.61
79010;DHT22;73031;44.726;37.760;2023-10-13T05:56:25;22.63;44.45
79010;DHT22;73031;44.726;37.760;2023-10-13T05:57:44;22.87;43.25
79010;DHT22;73031;44.726;37.760;2023-10-13T05:59:03;23.01;44.23
79010;DHT22;73031;44.726;37.760;2023-10-13T06:00:22;23.23;42.65
79010;DHT22;73031;44.726;37.760;2023-10-13T06:01:42;23.45;42.15
79010;DHT22;73031;44.726;37.760;2023-10-13T06:03:01;23.58;41.43
79010;DHT22;73031;44.726;37.760;2023-10-13T06:04:21;23.85;41.70
79010;DHT22;73031;44.726;37.760;2023-10-13T06:05:40;24.11;42.22
79010;DHT22;73031;44.726;37.760;2023-10-13T06:07:00;24.40;41.49
79010;DHT22;73031;44.726;37.760;2023-10-13T06:08:19;24.73;40.98
79010;DHT22;73031;44.726;37.760;2023-10-13T06:09:39;24.96;39.23
79010;DHT22;73031;44.726;37.760;2023-10-13T06:11:02;25.22;39.99
79010;DHT22;73031;44.726;37.760;2023-10-13T06:12:23;25.53;39.13
79010;DHT22;73031;44.726;37.760;2023-10-13T06:13:42;25.82;37.25
79010;DHT22;73031;44.726;37.760;2023-10-13T06:15:01;25.98;37.95
79010;DHT22;73031;44.726;37.760;2023-10-13T06:16:21;26.12;36.57
79010;DHT22;73031;44.726;37.760;2023-10-13T06:17:40;26.28;37.79
79010;DHT22;73031;44.726;37.760;2023-10-13T06:19:00;26.53;37.13
79010;DHT22;73031;44.726;37.760;2023-10-13T06:20:20;26.81;37.76
79010;DHT22;73031;44.726;37.760;2023-10-13T06:21:39;27.07;35.31
79010;DHT22;73031;44.726;37.760;2023-10-13T06:22:58;27.31;34.06
79010;DHT22;73031;44.726;37.760;2023-10-13T06:24:38;27.57;33.50
79010;DHT22;73031;44.726;37.760;2023-10-13T06:25:58;27.86;32.72
79010;DHT22;73031;44.726;37.760;2023-10-13T06:27:17;28.02;32.31
79010;DHT22;73031;44.726;37.760;2023-10-13T06:28:37;28.21;32.11
79010;DHT22;73031;44.726;37.760;2023-10-13T06:29:41;28.33;32.23
79010;DHT22;73031;44.726;37.760;2023-10-13T06:30:42;28.43;31.95
79010;DHT22;73031;44.726;37.760;2023-10-13T06:31:48;28.55;31.71
79010;DHT22;73031;44.726;37.760;2023-10-13T06:32:49;28.60;31.76
79010;DHT22;73031;44.726;37.760;2023-10-13T06:33:51;28.71;31.60
79010;DHT22;73031;44.726;37.760;2023-10-13T06:34:56;28.94;32.68
79010;DHT22;73031;44.726;37.760;2023-10-13T06:36:06;29.29;31.77
79010;DHT22;73031;44.726;37.760;2023-10-13T06:38:30;29.48;29.67
79010;DHT22;73031;44.726;37.760;2023-10-13T06:39:36;29.21;30.26
79010;DHT22;73031;44.726;37.760;2023-10-13T06:40:38;28.98;30.67
79010;DHT22;73031;44.726;37.760;2023-10-13T06:41:42;28.67;31.17
79010;DHT22;73031;44.726;37.760;2023-10-13T06:42:44;28.57;30.98
79010;DHT22;73031;44.726;37.760;2023-10-13T06:43:45;28.71;32.37
79010;DHT22;73031;44.726;37.760;2023-10-13T06:44:46;29.10;31.41
79010;DHT22;73031;44.726;37.760;2023-10-13T06:45:48;29.36;31.21
79010;DHT22;73031;44.726;37.760;2023-10-13T06:47:01;29.55;30.35
79010;DHT22;73031;44.726;37.760;2023-10-13T06:48:05;29.76;31.28
79010;DHT22;73031;44.726;37.760;2023-10-13T06:49:06;30.01;30.97
79010;DHT22;73031;44.726;37.760;2023-10-13T06:50:10;30.17;29.54
79010;DHT22;73031;44.726;37.760;2023-10-13T06:51:24;30.25;29.25
79010;DHT22;73031;44.726;37.760;2023-10-13T06:52:31;30.35;29.39
79010;DHT22;73031;44.726;37.760;2023-10-13T06:53:32;30.48;29.01
79010;DHT22;73031;44.726;37.760;2023-10-13T06:54:39;30.42;29.33
79010;DHT22;73031;44.726;37.760;2023-10-13T06:55:41;30.39;28.61
79010;DHT22;73031;44.726;37.760;2023-10-13T06:56:48;30.29;29.17
79010;DHT22;73031;44.726;37.760;2023-10-13T06:57:54;30.17;28.41
79010;DHT22;73031;44.726;37.760;2023-10-13T06:59:00;30.07;29.54
79010;DHT22;73031;44.726;37.760;2023-10-13T07:00:05;30.21;28.69
79010;DHT22;73031;44.726;37.760;2023-10-13T07:01:09;30.21;28.52
79010;DHT22;73031;44.726;37.760;2023-10-13T07:02:15;30.31;29.03
79010;DHT22;73031;44.726;37.760;2023-10-13T07:03:23;30.31;29.56
79010;DHT22;73031;44.726;37.760;2023-10-13T07:04:25;30.58;29.00
79010;DHT22;73031;44.726;37.760;2023-10-13T07:05:27;30.80;28.33
79010;DHT22;73031;44.726;37.760;2023-10-13T07:06:28;31.00;28.38
79010;DHT22;73031;44.726;37.760;2023-10-13T07:07:32;31.06;27.46
79010;DHT22;73031;44.726;37.760;2023-10-13T07:08:33;30.45;27.50
79010;DHT22;73031;44.726;37.760;2023-10-13T07:09:37;30.25;28.97
79010;DHT22;73031;44.726;37.760;2023-10-13T07:10:38;30.65;28.54
79010;DHT22;73031;44.726;37.760;2023-10-13T07:11:59;30.91;28.29
79010;DHT22;73031;44.726;37.760;2023-10-13T07:13:02;31.06;28.31
79010;DHT22;73031;44.726;37.760;2023-10-13T07:14:08;31.24;27.96